createdAt,value
2023-03-29T00:02:16.133Z,96039.63
2023-03-29T00:04:43.391Z,96042.47
2023-03-29T00:07:10.604Z,96036.38
2023-03-29T00:09:39.222Z,96036.81
2023-03-29T00:12:07.056Z,96060.63
2023-03-29T00:14:34.130Z,96057.59
2023-03-29T00:17:01.287Z,96063.84
2023-03-29T00:19:28.503Z,96059.63
2023-03-29T00:21:55.582Z,96054.56
2023-03-29T00:24:22.783Z,96048.69
2023-03-29T00:26:51.763Z,96059.59
2023-03-29T00:29:18.881Z,96055.53
2023-03-29T00:31:46.187Z,96055.72
2023-03-29T00:34:13.718Z,96052.13
2023-03-29T00:36:40.801Z,96044.63
2023-03-29T00:39:08.080Z,96038.38
2023-03-29T00:41:35.404Z,96033.84
2023-03-29T00:44:05.123Z,96025.81
2023-03-29T00:46:32.416Z,96027.28
2023-03-29T00:49:06.465Z,96034.00
2023-03-29T00:51:41.083Z,96015.72
2023-03-29T00:54:14.019Z,96010.31
2023-03-29T00:56:46.718Z,96018.41
2023-03-29T00:59:20.860Z,96023.00
2023-03-29T01:01:53.643Z,96012.66
2023-03-29T01:04:27.582Z,96024.34
2023-03-29T01:07:00.945Z,96018.22
2023-03-29T01:09:36.941Z,95993.84
2023-03-29T01:12:13.764Z,96018.16
2023-03-29T01:14:48.737Z,96000.75
2023-03-29T01:17:15.990Z,95991.38
2023-03-29T01:19:51.407Z,96003.59
2023-03-29T01:22:30.700Z,95996.75
2023-03-29T01:25:12.876Z,95989.09
2023-03-29T01:27:53.078Z,95997.16
2023-03-29T01:30:28.929Z,95990.91
2023-03-29T01:33:02.639Z,95980.59
2023-03-29T01:35:38.662Z,95992.88
2023-03-29T01:38:12.435Z,95983.00
2023-03-29T01:40:40.019Z,95984.81
2023-03-29T01:43:21.999Z,95979.56
2023-03-29T01:46:00.515Z,95982.44
2023-03-29T01:48:35.036Z,95978.56
2023-03-29T01:51:09.701Z,96000.81
2023-03-29T01:53:43.259Z,96026.28
2023-03-29T01:56:14.448Z,96040.81
2023-03-29T01:58:49.249Z,96033.69
2023-03-29T02:01:22.842Z,96024.75
2023-03-29T02:03:55.231Z,96028.22
2023-03-29T02:06:28.072Z,96019.91
2023-03-29T02:08:56.109Z,96022.97
2023-03-29T02:11:26.309Z,95996.66
2023-03-29T02:13:55.073Z,95998.47
2023-03-29T02:16:23.279Z,95997.03
2023-03-29T02:18:54.228Z,96004.47
2023-03-29T02:21:26.534Z,96008.47
2023-03-29T02:23:59.813Z,95997.63
2023-03-29T02:26:27.390Z,96010.63
2023-03-29T02:28:56.196Z,96010.91
2023-03-29T02:31:29.255Z,96010.31
2023-03-29T02:34:02.730Z,96001.06
2023-03-29T02:36:36.351Z,96012.13
2023-03-29T02:39:04.894Z,96033.81
2023-03-29T02:41:34.388Z,96025.19
2023-03-29T02:44:07.485Z,96006.00
2023-03-29T02:46:35.799Z,96008.41
2023-03-29T02:49:02.964Z,96016.69
2023-03-29T02:51:34.344Z,96008.63
2023-03-29T02:54:06.749Z,95991.63
2023-03-29T02:56:42.851Z,96005.41
2023-03-29T02:59:11.580Z,96016.59
2023-03-29T03:01:39.038Z,96034.53
2023-03-29T03:04:06.233Z,96015.69
2023-03-29T03:06:33.540Z,96014.13
2023-03-29T03:09:00.760Z,96007.69
2023-03-29T03:11:27.905Z,95999.31
2023-03-29T03:13:55.282Z,95989.22
2023-03-29T03:16:24.062Z,95989.06
2023-03-29T03:18:52.418Z,95978.53
2023-03-29T03:21:19.677Z,95975.69
2023-03-29T03:23:47.027Z,95989.72
2023-03-29T03:26:15.568Z,95998.94
2023-03-29T03:28:42.685Z,95993.28
2023-03-29T03:31:09.945Z,96016.91
2023-03-29T03:33:38.627Z,96051.19
2023-03-29T03:36:06.936Z,96034.97
2023-03-29T03:38:35.035Z,96027.91
2023-03-29T03:41:02.761Z,96011.50
2023-03-29T03:43:30.843Z,95999.41
2023-03-29T03:45:58.296Z,95970.78
2023-03-29T03:48:26.408Z,95967.16
2023-03-29T03:50:56.632Z,95968.47
2023-03-29T03:53:25.147Z,95970.44
2023-03-29T03:55:54.415Z,95978.72
2023-03-29T03:58:22.960Z,95980.28
2023-03-29T04:00:51.460Z,95964.53
2023-03-29T04:03:19.327Z,95968.06
2023-03-29T04:05:47.642Z,95971.94
2023-03-29T04:08:16.228Z,95979.63
2023-03-29T04:10:51.445Z,95979.75
2023-03-29T04:13:18.818Z,95975.53
2023-03-29T04:15:45.920Z,95971.78
2023-03-29T04:18:13.241Z,95980.25
2023-03-29T04:20:40.482Z,95979.03
2023-03-29T04:23:07.706Z,95968.28
2023-03-29T04:25:36.444Z,95970.56
2023-03-29T04:28:03.775Z,95981.81
2023-03-29T04:30:31.142Z,95984.09
2023-03-29T04:32:58.467Z,95984.34
2023-03-29T04:35:26.157Z,95978.66
2023-03-29T04:37:53.745Z,95974.22
2023-03-29T04:40:21.278Z,95962.84
2023-03-29T04:42:50.159Z,95969.75
2023-03-29T04:45:17.540Z,95959.25
2023-03-29T04:47:44.927Z,95963.28
2023-03-29T04:50:13.317Z,95962.66
2023-03-29T04:52:40.417Z,95965.31
2023-03-29T04:55:08.797Z,95955.34
2023-03-29T04:57:35.939Z,95972.16
2023-03-29T05:00:06.259Z,95977.56
2023-03-29T05:02:33.473Z,95973.09
2023-03-29T05:05:00.720Z,95968.44
2023-03-29T05:07:27.920Z,95973.84
2023-03-29T05:09:55.038Z,95959.06
2023-03-29T05:12:22.266Z,95959.47
2023-03-29T05:14:49.302Z,95960.03
2023-03-29T05:17:17.901Z,95964.44
2023-03-29T05:19:45.125Z,95952.84
2023-03-29T05:22:12.198Z,95964.22
2023-03-29T05:24:39.319Z,95961.72
2023-03-29T05:27:06.577Z,95954.41
2023-03-29T05:29:33.754Z,95948.53
2023-03-29T05:32:01.017Z,95948.75
2023-03-29T05:34:30.190Z,95962.50
2023-03-29T05:36:57.337Z,95970.13
2023-03-29T05:39:24.538Z,95963.69
2023-03-29T05:41:51.642Z,95966.31
2023-03-29T05:44:19.100Z,95962.88
2023-03-29T05:46:46.239Z,95953.53
2023-03-29T05:49:13.608Z,95957.13
2023-03-29T05:51:42.295Z,95969.13
2023-03-29T05:54:09.707Z,95974.16
2023-03-29T05:56:37.134Z,95975.81
2023-03-29T05:59:04.447Z,95989.56
2023-03-29T06:01:31.708Z,95985.91
2023-03-29T06:03:59.052Z,95981.06
2023-03-29T06:06:26.352Z,95988.38
2023-03-29T06:08:55.147Z,95989.97
2023-03-29T06:11:22.385Z,95986.13
2023-03-29T06:13:49.447Z,95982.41
2023-03-29T06:16:16.699Z,95977.16
2023-03-29T06:18:44.008Z,95979.75
2023-03-29T06:21:11.194Z,95985.06
2023-03-29T06:23:38.357Z,95987.06
2023-03-29T06:26:07.639Z,95995.78
2023-03-29T06:28:34.716Z,96000.25
2023-03-29T06:33:29.959Z,96001.47
2023-03-29T06:35:57.282Z,95995.59
2023-03-29T06:38:24.984Z,96009.13
2023-03-29T06:40:52.763Z,96011.94
2023-03-29T06:43:21.439Z,96012.53
2023-03-29T06:45:48.889Z,96009.38
2023-03-29T06:48:16.102Z,96005.91
2023-03-29T06:50:43.271Z,95999.53
2023-03-29T06:53:10.606Z,96015.34
2023-03-29T06:55:37.854Z,96008.47
2023-03-29T06:58:05.163Z,96016.19
2023-03-29T07:00:33.902Z,96013.66
2023-03-29T07:03:05.976Z,96000.22
2023-03-29T07:05:33.840Z,95997.81
2023-03-29T07:08:01.080Z,96002.09
2023-03-29T07:10:31.121Z,96002.66
2023-03-29T07:12:59.583Z,96005.75
2023-03-29T07:15:27.739Z,96016.47
2023-03-29T07:17:56.369Z,96020.72
2023-03-29T07:20:24.165Z,96027.41
2023-03-29T07:22:52.321Z,96024.03
2023-03-29T07:25:21.619Z,96044.06
2023-03-29T07:27:49.201Z,96027.91
2023-03-29T07:30:18.995Z,96031.75
2023-03-29T07:32:46.893Z,96034.75
2023-03-29T07:35:17.004Z,96039.94
2023-03-29T07:37:45.681Z,96048.59
2023-03-29T07:40:15.780Z,96046.66
2023-03-29T07:42:44.542Z,96050.97
2023-03-29T07:45:13.483Z,96046.75
2023-03-29T07:47:41.311Z,96048.81
2023-03-29T07:50:09.996Z,96046.16
2023-03-29T07:52:38.781Z,96032.53
2023-03-29T07:55:07.815Z,96039.16
2023-03-29T07:57:35.942Z,96035.88
2023-03-29T08:00:05.702Z,96037.28
2023-03-29T08:02:32.952Z,96041.34
2023-03-29T08:05:00.373Z,96039.16
2023-03-29T08:07:27.880Z,96040.09
2023-03-29T08:09:56.557Z,96042.44
2023-03-29T08:12:25.033Z,96040.84
2023-03-29T08:14:52.403Z,96054.69
2023-03-29T08:17:19.533Z,96060.88
2023-03-29T08:19:51.059Z,96063.88
2023-03-29T08:22:19.667Z,96066.69
2023-03-29T08:24:47.116Z,96066.75
2023-03-29T08:27:15.921Z,96064.59
2023-03-29T08:29:43.114Z,96068.19
2023-03-29T08:32:10.559Z,96062.69
2023-03-29T08:34:37.932Z,96052.91
2023-03-29T08:37:05.179Z,96053.31
2023-03-29T08:39:32.408Z,96051.41
2023-03-29T08:42:20.853Z,96061.00
2023-03-29T08:45:02.200Z,96048.47
2023-03-29T08:47:43.385Z,96046.06
2023-03-29T08:50:14.032Z,96049.66
2023-03-29T08:52:47.283Z,96056.97
2023-03-29T08:55:26.944Z,96063.19
2023-03-29T08:57:59.537Z,96059.94
2023-03-29T09:00:37.481Z,96057.66
2023-03-29T09:03:15.065Z,96062.91
2023-03-29T09:05:47.859Z,96057.06
2023-03-29T09:08:17.940Z,96052.59
2023-03-29T09:10:48.738Z,96050.75
2023-03-29T09:13:34.996Z,96053.84
2023-03-29T09:16:11.927Z,96056.78
2023-03-29T09:18:54.054Z,96053.72
2023-03-29T09:21:31.137Z,96056.78
2023-03-29T09:24:14.533Z,96057.41
2023-03-29T09:26:51.409Z,96056.03
2023-03-29T09:29:50.132Z,96054.94
2023-03-29T09:32:21.834Z,96048.75
2023-03-29T09:35:01.107Z,96051.19
2023-03-29T09:37:34.707Z,96061.16
2023-03-29T09:40:11.150Z,96056.06
2023-03-29T09:42:40.399Z,96050.47
2023-03-29T09:45:10.800Z,96047.56
2023-03-29T09:47:44.411Z,96056.53
2023-03-29T09:50:30.032Z,96056.75
2023-03-29T09:52:58.686Z,96061.22
2023-03-29T09:55:30.080Z,96058.56
2023-03-29T09:58:02.276Z,96056.78
2023-03-29T10:00:31.029Z,96048.63
2023-03-29T10:02:58.617Z,96047.56
2023-03-29T10:05:30.094Z,96046.38
2023-03-29T10:08:01.198Z,96046.09
2023-03-29T10:10:31.095Z,96039.75
2023-03-29T10:13:04.170Z,96042.47
2023-03-29T10:15:33.899Z,96052.06
2023-03-29T10:18:05.681Z,96043.03
2023-03-29T10:20:37.445Z,96045.84
2023-03-29T10:23:07.732Z,96040.84
2023-03-29T10:25:42.104Z,96050.97
2023-03-29T10:28:16.116Z,96045.19
2023-03-29T10:30:53.326Z,96042.19
2023-03-29T10:33:25.070Z,96040.72
2023-03-29T10:35:55.284Z,96047.50
2023-03-29T10:38:27.087Z,96042.84
2023-03-29T10:41:02.940Z,96040.88
2023-03-29T10:43:37.587Z,96041.50
2023-03-29T10:46:12.432Z,96054.56
2023-03-29T10:48:46.557Z,96053.44
2023-03-29T10:51:15.822Z,96050.50
2023-03-29T10:53:43.707Z,96046.63
2023-03-29T10:56:34.274Z,96025.53
2023-03-29T10:59:23.805Z,96027.44
2023-03-29T11:02:27.317Z,96045.41
2023-03-29T11:05:16.229Z,96034.97
2023-03-29T11:08:05.292Z,96028.75
2023-03-29T11:10:44.624Z,96012.38
2023-03-29T11:13:23.612Z,96008.28
2023-03-29T11:16:09.869Z,96025.44
2023-03-29T11:18:55.987Z,96026.63
2023-03-29T11:21:39.596Z,96017.59
2023-03-29T11:24:36.874Z,96009.41
2023-03-29T11:27:21.644Z,96003.72
2023-03-29T11:30:06.779Z,96014.06
2023-03-29T11:32:46.226Z,96019.78
2023-03-29T11:35:39.276Z,96027.22
2023-03-29T11:38:19.215Z,96018.00
2023-03-29T11:40:58.567Z,96007.88
2023-03-29T11:43:34.396Z,96016.53
2023-03-29T11:46:11.774Z,96015.56
2023-03-29T11:48:48.289Z,96009.31
2023-03-29T11:51:23.620Z,96014.50
2023-03-29T11:54:01.865Z,96022.28
2023-03-29T11:56:37.198Z,96021.94
2023-03-29T11:59:14.643Z,96024.88
2023-03-29T12:01:50.696Z,96027.16
2023-03-29T12:04:30.759Z,96013.28
2023-03-29T12:07:11.711Z,95987.53
2023-03-29T12:09:48.913Z,95983.31
2023-03-29T12:12:25.983Z,95977.59
2023-03-29T12:15:05.195Z,95996.16
2023-03-29T12:17:39.205Z,95990.31
2023-03-29T12:20:18.532Z,95979.16
2023-03-29T12:22:47.871Z,95967.75
2023-03-29T12:25:23.418Z,95966.25
2023-03-29T12:28:09.052Z,95974.44
2023-03-29T12:30:59.099Z,95977.81
2023-03-29T12:33:55.313Z,95961.72
2023-03-29T12:36:53.434Z,95966.13
2023-03-29T12:39:26.857Z,95966.16
2023-03-29T12:42:07.837Z,95966.19
2023-03-29T12:44:36.127Z,95962.41
2023-03-29T12:47:03.380Z,95973.56
2023-03-29T12:49:36.066Z,95965.78
2023-03-29T12:52:17.552Z,95966.72
2023-03-29T12:54:54.610Z,95963.91
2023-03-29T12:57:29.069Z,95961.97
2023-03-29T12:59:56.639Z,95959.97
2023-03-29T13:02:35.289Z,95957.47
2023-03-29T13:05:03.269Z,95948.00
2023-03-29T13:07:43.556Z,95953.41
2023-03-29T13:10:34.496Z,95952.84
2023-03-29T13:13:17.032Z,95957.69
2023-03-29T13:15:45.603Z,95957.22
2023-03-29T13:18:39.977Z,95948.81
2023-03-29T13:21:20.996Z,95939.72
2023-03-29T13:23:59.615Z,95940.88
2023-03-29T13:26:52.940Z,95928.16
2023-03-29T13:29:50.016Z,95929.81
2023-03-29T13:32:30.489Z,95927.84
2023-03-29T13:35:11.197Z,95920.19
2023-03-29T13:37:51.736Z,95917.72
2023-03-29T13:40:32.368Z,95904.69
2023-03-29T13:43:02.011Z,95911.25
2023-03-29T13:45:32.964Z,95908.09
2023-03-29T13:48:06.248Z,95913.00
2023-03-29T13:50:37.847Z,95912.81
2023-03-29T13:53:15.976Z,95910.75
2023-03-29T13:55:50.680Z,95903.16
2023-03-29T13:58:33.175Z,95902.59
2023-03-29T14:01:11.838Z,95890.84
2023-03-29T14:03:44.876Z,95891.75
2023-03-29T14:06:17.640Z,95884.41
2023-03-29T14:08:45.459Z,95889.09
2023-03-29T14:11:23.418Z,95883.31
2023-03-29T14:13:54.089Z,95882.34
2023-03-29T14:16:27.970Z,95885.88
2023-03-29T14:18:59.634Z,95879.69
2023-03-29T14:21:27.303Z,95870.66
2023-03-29T14:23:57.517Z,95872.50
2023-03-29T14:26:30.275Z,95863.41
2023-03-29T14:28:59.694Z,95868.06
2023-03-29T14:31:32.265Z,95864.53
2023-03-29T14:34:02.222Z,95864.09
2023-03-29T14:36:32.138Z,95864.22
2023-03-29T14:39:05.211Z,95864.84
2023-03-29T14:41:35.402Z,95866.06
2023-03-29T14:44:04.657Z,95857.88
2023-03-29T14:46:35.307Z,95855.00
2023-03-29T14:49:11.662Z,95855.72
2023-03-29T14:51:40.547Z,95842.63
2023-03-29T14:54:11.475Z,95834.94
2023-03-29T14:56:39.038Z,95841.06
2023-03-29T14:59:25.618Z,95831.38
2023-03-29T15:01:54.864Z,95829.44
2023-03-29T15:04:22.158Z,95825.41
2023-03-29T15:06:49.919Z,95821.19
2023-03-29T15:09:23.294Z,95815.72
2023-03-29T15:11:55.616Z,95821.34
2023-03-29T15:14:26.452Z,95813.88
2023-03-29T15:17:02.857Z,95817.09
2023-03-29T15:19:30.796Z,95811.47
2023-03-29T15:22:03.975Z,95816.53
2023-03-29T15:24:33.910Z,95806.97
2023-03-29T15:27:04.122Z,95806.28
2023-03-29T15:29:39.953Z,95803.84
2023-03-29T15:32:10.285Z,95801.03
2023-03-29T15:34:37.677Z,95792.75
2023-03-29T15:37:05.417Z,95794.13
2023-03-29T15:39:34.121Z,95798.38
2023-03-29T15:42:01.594Z,95789.38
2023-03-29T15:44:33.421Z,95792.84
2023-03-29T15:47:00.880Z,95786.22
2023-03-29T15:49:29.536Z,95779.66
2023-03-29T15:51:57.799Z,95783.13
2023-03-29T15:54:25.538Z,95782.56
2023-03-29T15:56:56.752Z,95781.34
2023-03-29T15:59:24.629Z,95773.72
2023-03-29T16:01:52.215Z,95770.25
2023-03-29T16:04:22.283Z,95762.78
2023-03-29T16:06:53.657Z,95765.41
2023-03-29T16:09:22.311Z,95760.94
2023-03-29T16:11:50.263Z,95763.91
2023-03-29T16:14:21.814Z,95760.38
2023-03-29T16:16:49.561Z,95755.94
2023-03-29T16:19:16.977Z,95756.50
2023-03-29T16:21:45.396Z,95747.81
2023-03-29T16:24:17.958Z,95750.00
2023-03-29T16:26:52.806Z,95745.72
2023-03-29T16:29:22.793Z,95745.47
2023-03-29T16:31:50.948Z,95747.41
2023-03-29T16:34:18.856Z,95740.28
2023-03-29T16:36:47.282Z,95746.59
2023-03-29T16:39:16.272Z,95741.50
2023-03-29T16:41:43.591Z,95734.81
2023-03-29T16:44:16.118Z,95734.72
2023-03-29T16:46:43.553Z,95729.66
2023-03-29T16:49:14.151Z,95728.38
2023-03-29T16:51:41.621Z,95728.94
2023-03-29T16:54:10.893Z,95722.53
2023-03-29T16:56:40.090Z,95727.13
2023-03-29T16:59:07.250Z,95727.25
2023-03-29T17:01:34.492Z,95729.69
2023-03-29T17:04:02.127Z,95726.31
2023-03-29T17:06:29.385Z,95718.69
2023-03-29T17:08:56.965Z,95722.31
2023-03-29T17:11:24.447Z,95720.81
2023-03-29T17:13:53.186Z,95717.88
2023-03-29T17:16:20.788Z,95726.81
2023-03-29T17:18:48.344Z,95729.75
2023-03-29T17:21:16.085Z,95730.63
2023-03-29T17:23:43.668Z,95736.75
2023-03-29T17:26:11.401Z,95732.00
2023-03-29T17:28:39.096Z,95722.47
2023-03-29T17:31:08.122Z,95732.72
2023-03-29T17:33:36.332Z,95727.69
2023-03-29T17:36:05.854Z,95729.59
2023-03-29T17:38:34.225Z,95724.88
2023-03-29T17:41:02.509Z,95720.91
2023-03-29T17:43:31.966Z,95723.50
2023-03-29T17:45:59.538Z,95720.53
2023-03-29T17:50:58.030Z,95726.81
2023-03-29T17:53:25.428Z,95720.69
2023-03-29T17:55:53.004Z,95715.63
2023-03-29T17:58:20.433Z,95718.75
2023-03-29T18:00:47.908Z,95712.09
2023-03-29T18:03:15.197Z,95719.00
2023-03-29T18:05:44.364Z,95720.94
2023-03-29T18:08:12.409Z,95721.19
2023-03-29T18:10:39.695Z,95713.13
2023-03-29T18:13:06.787Z,95716.03
2023-03-29T18:15:34.006Z,95715.38
2023-03-29T18:18:01.372Z,95721.88
2023-03-29T18:20:28.661Z,95720.28
2023-03-29T18:22:58.788Z,95724.78
2023-03-29T18:25:26.272Z,95729.19
2023-03-29T18:27:53.507Z,95735.78
2023-03-29T18:30:21.621Z,95732.81
2023-03-29T18:32:49.024Z,95722.38
2023-03-29T18:35:16.573Z,95718.75
2023-03-29T18:37:43.768Z,95716.03
2023-03-29T18:40:13.371Z,95707.50
2023-03-29T18:42:41.511Z,95716.78
2023-03-29T18:45:11.192Z,95727.75
2023-03-29T18:47:39.704Z,95716.53
2023-03-29T18:50:09.892Z,95721.16
2023-03-29T18:52:37.375Z,95722.66
2023-03-29T18:55:05.904Z,95727.81
2023-03-29T18:57:34.708Z,95728.88
2023-03-29T19:00:02.410Z,95735.06
2023-03-29T19:02:29.685Z,95733.44
2023-03-29T19:04:57.113Z,95733.94
2023-03-29T19:07:24.317Z,95749.00
2023-03-29T19:09:51.606Z,95741.63
2023-03-29T19:12:19.880Z,95755.00
2023-03-29T19:14:51.729Z,95747.31
2023-03-29T19:17:19.135Z,95744.81
2023-03-29T19:19:47.234Z,95752.69
2023-03-29T19:22:15.273Z,95761.13
2023-03-29T19:24:42.433Z,95746.19
2023-03-29T19:27:12.568Z,95750.78
2023-03-29T19:29:44.494Z,95749.31
2023-03-29T19:32:14.492Z,95756.78
2023-03-29T19:34:50.635Z,95754.91
2023-03-29T19:37:26.913Z,95760.31
2023-03-29T19:40:03.930Z,95752.47
2023-03-29T19:42:31.649Z,95759.59
2023-03-29T19:44:59.153Z,95760.53
2023-03-29T19:47:28.597Z,95750.94
2023-03-29T19:49:57.428Z,95757.94
2023-03-29T19:52:24.654Z,95757.88
2023-03-29T19:54:52.146Z,95747.28
2023-03-29T19:57:19.617Z,95747.41
2023-03-29T19:59:47.507Z,95740.50
2023-03-29T20:02:15.610Z,95740.84
2023-03-29T20:04:44.613Z,95734.63
2023-03-29T20:07:12.086Z,95733.66
2023-03-29T20:09:39.344Z,95740.06
2023-03-29T20:12:12.345Z,95732.75
2023-03-29T20:14:40.193Z,95733.03
2023-03-29T20:17:07.826Z,95719.41
2023-03-29T20:19:36.561Z,95716.56
2023-03-29T20:22:06.048Z,95725.84
2023-03-29T20:24:33.948Z,95729.78
2023-03-29T20:27:01.362Z,95732.03
2023-03-29T20:29:28.826Z,95720.78
2023-03-29T20:31:56.803Z,95715.91
2023-03-29T20:34:24.219Z,95714.41
2023-03-29T20:36:52.470Z,95706.69
2023-03-29T20:39:23.003Z,95710.75
2023-03-29T20:41:52.700Z,95706.81
2023-03-29T20:44:20.386Z,95706.47
2023-03-29T20:46:49.418Z,95706.25
2023-03-29T20:49:19.531Z,95714.25
2023-03-29T20:51:47.187Z,95714.56
2023-03-29T20:54:14.285Z,95719.44
2023-03-29T20:56:43.302Z,95715.56
2023-03-29T20:59:11.887Z,95724.94
2023-03-29T21:01:39.097Z,95719.25
2023-03-29T21:04:07.388Z,95717.78
2023-03-29T21:06:34.950Z,95730.78
2023-03-29T21:09:02.146Z,95727.25
2023-03-29T21:11:29.508Z,95712.63
2023-03-29T21:13:58.367Z,95724.81
2023-03-29T21:16:25.733Z,95719.50
2023-03-29T21:18:53.668Z,95722.41
2023-03-29T21:21:20.857Z,95721.59
2023-03-29T21:23:48.545Z,95718.06
2023-03-29T21:26:15.728Z,95711.88
2023-03-29T21:28:44.806Z,95707.25
2023-03-29T21:31:13.683Z,95700.75
2023-03-29T21:33:40.928Z,95705.38
2023-03-29T21:36:08.728Z,95701.69
2023-03-29T21:38:36.014Z,95702.72
2023-03-29T21:41:03.612Z,95706.75
2023-03-29T21:43:31.083Z,95704.41
2023-03-29T21:45:58.326Z,95711.91
2023-03-29T21:48:27.265Z,95706.38
2023-03-29T21:50:54.425Z,95705.31
2023-03-29T21:53:21.628Z,95705.19
2023-03-29T21:55:49.387Z,95704.16
2023-03-29T21:58:16.891Z,95703.91
2023-03-29T22:00:44.640Z,95700.00
2023-03-29T22:03:12.081Z,95701.03
2023-03-29T22:05:41.088Z,95677.69
2023-03-29T22:08:08.289Z,95675.75
2023-03-29T22:10:37.805Z,95682.56
2023-03-29T22:13:05.290Z,95683.50
2023-03-29T22:15:32.652Z,95680.75
2023-03-29T22:18:00.008Z,95677.97
2023-03-29T22:20:27.349Z,95675.00
2023-03-29T22:22:56.049Z,95669.78
2023-03-29T22:25:23.192Z,95665.78
2023-03-29T22:27:50.589Z,95656.78
2023-03-29T22:30:18.065Z,95662.91
2023-03-29T22:32:45.563Z,95657.63
2023-03-29T22:35:12.795Z,95654.97
2023-03-29T22:37:44.015Z,95654.88
2023-03-29T22:40:13.920Z,95637.47
2023-03-29T22:42:41.198Z,95651.28
2023-03-29T22:45:09.514Z,95649.69
2023-03-29T22:47:36.658Z,95647.03
2023-03-29T22:50:04.643Z,95639.69
2023-03-29T22:52:31.771Z,95637.91
2023-03-29T22:54:59.129Z,95644.94
2023-03-29T22:57:28.000Z,95648.72
2023-03-29T22:59:55.269Z,95641.69
2023-03-29T23:02:22.751Z,95634.56
2023-03-29T23:04:50.009Z,95640.84
2023-03-29T23:07:17.373Z,95634.41
2023-03-29T23:09:44.407Z,95633.69
2023-03-29T23:12:11.626Z,95634.25
2023-03-29T23:14:40.373Z,95634.47
2023-03-29T23:17:07.527Z,95630.00
2023-03-29T23:19:34.765Z,95626.47
2023-03-29T23:22:01.986Z,95619.41
2023-03-29T23:24:29.386Z,95619.81
2023-03-29T23:26:56.789Z,95603.13
2023-03-29T23:29:23.905Z,95594.19
2023-03-29T23:31:52.732Z,95588.59
2023-03-29T23:34:19.945Z,95591.78
2023-03-29T23:36:47.116Z,95586.72
2023-03-29T23:39:14.564Z,95586.31
2023-03-29T23:41:41.825Z,95580.44
2023-03-29T23:44:08.925Z,95598.03
2023-03-29T23:46:36.195Z,95592.16
2023-03-29T23:49:05.168Z,95593.06
2023-03-29T23:51:32.289Z,95595.19
2023-03-29T23:53:59.406Z,95588.50
2023-03-29T23:56:27.006Z,95571.72
2023-03-29T23:58:54.730Z,95576.78
